createdAt,value
2023-11-13T00:00:34.461Z,98654.00
2023-11-13T00:03:01.948Z,98654.81
2023-11-13T00:05:29.211Z,98663.28
2023-11-13T00:07:58.891Z,98664.25
2023-11-13T00:10:26.106Z,98656.56
2023-11-13T00:12:53.274Z,98657.38
2023-11-13T00:15:21.741Z,98660.72
2023-11-13T00:17:48.940Z,98657.19
2023-11-13T00:20:16.267Z,98659.75
2023-11-13T00:22:43.509Z,98653.03
2023-11-13T00:25:10.706Z,98661.31
2023-11-13T00:27:38.108Z,98658.94
2023-11-13T00:30:07.833Z,98659.13
2023-11-13T00:32:36.845Z,98663.47
2023-11-13T00:35:04.472Z,98656.00
2023-11-13T00:37:31.556Z,98662.69
2023-11-13T00:39:58.628Z,98668.56
2023-11-13T00:42:25.675Z,98675.63
2023-11-13T00:44:52.725Z,98682.13
2023-11-13T00:47:19.781Z,98682.72
2023-11-13T00:49:48.188Z,98688.00
2023-11-13T00:52:15.255Z,98681.91
2023-11-13T00:54:43.274Z,98672.88
2023-11-13T00:57:10.659Z,98671.09
2023-11-13T00:59:37.625Z,98672.50
2023-11-13T01:02:05.545Z,98671.69
2023-11-13T01:04:32.951Z,98672.28
2023-11-13T01:07:01.413Z,98668.56
2023-11-13T01:09:28.691Z,98668.38
2023-11-13T01:11:55.920Z,98677.44
2023-11-13T01:14:23.077Z,98674.88
2023-11-13T01:16:50.256Z,98667.19
2023-11-13T01:19:17.447Z,98672.94
2023-11-13T01:21:44.663Z,98671.13
2023-11-13T01:24:13.326Z,98659.50
2023-11-13T01:26:40.509Z,98662.88
2023-11-13T01:29:07.747Z,98668.78
2023-11-13T01:31:35.008Z,98664.25
2023-11-13T01:34:02.089Z,98655.78
2023-11-13T01:36:29.220Z,98655.19
2023-11-13T01:38:56.332Z,98660.31
2023-11-13T01:41:24.903Z,98670.75
2023-11-13T01:43:51.986Z,98662.25
2023-11-13T01:46:19.159Z,98662.06
2023-11-13T01:48:46.399Z,98656.75
2023-11-13T01:51:14.710Z,98644.97
2023-11-13T01:53:42.155Z,98659.69
2023-11-13T01:56:09.447Z,98654.78
2023-11-13T01:58:38.843Z,98663.44
2023-11-13T02:01:07.103Z,98661.06
2023-11-13T02:03:35.964Z,98664.44
2023-11-13T02:06:03.156Z,98650.84
2023-11-13T02:08:30.202Z,98660.88
2023-11-13T02:10:57.574Z,98654.97
2023-11-13T02:13:24.913Z,98652.59
2023-11-13T02:15:53.376Z,98654.19
2023-11-13T02:18:20.730Z,98644.91
2023-11-13T02:20:47.763Z,98642.75
2023-11-13T02:23:17.367Z,98634.47
2023-11-13T02:25:52.616Z,98621.47
2023-11-13T02:28:19.481Z,98618.31
2023-11-13T02:30:46.625Z,98616.88
2023-11-13T02:33:13.735Z,98614.13
2023-11-13T02:35:41.125Z,98613.13
2023-11-13T02:38:08.532Z,98610.38
2023-11-13T02:40:36.990Z,98612.75
2023-11-13T02:43:04.064Z,98607.81
2023-11-13T02:45:31.075Z,98614.50
2023-11-13T02:47:58.146Z,98621.59
2023-11-13T02:50:25.531Z,98620.22
2023-11-13T02:52:52.752Z,98612.91
2023-11-13T02:55:19.774Z,98610.34
2023-11-13T02:57:49.392Z,98612.31
2023-11-13T03:00:17.108Z,98614.88
2023-11-13T03:02:44.378Z,98612.50
2023-11-13T03:05:11.403Z,98621.16
2023-11-13T03:07:38.636Z,98630.78
2023-11-13T03:10:09.416Z,98630.38
2023-11-13T03:12:37.008Z,98624.66
2023-11-13T03:15:06.976Z,98628.75
2023-11-13T03:17:34.410Z,98633.28
2023-11-13T03:20:03.170Z,98621.25
2023-11-13T03:22:30.347Z,98625.94
2023-11-13T03:24:57.893Z,98631.41
2023-11-13T03:27:25.059Z,98626.31
2023-11-13T03:29:52.237Z,98630.41
2023-11-13T03:32:20.791Z,98631.72
2023-11-13T03:34:47.920Z,98638.94
2023-11-13T03:37:15.208Z,98647.94
2023-11-13T03:39:42.189Z,98656.56
2023-11-13T03:42:10.510Z,98647.94
2023-11-13T03:44:37.647Z,98642.84
2023-11-13T03:47:05.067Z,98637.44
2023-11-13T03:49:33.713Z,98639.59
2023-11-13T03:52:00.870Z,98639.78
2023-11-13T03:54:27.989Z,98638.94
2023-11-13T03:56:54.974Z,98635.41
2023-11-13T03:59:22.012Z,98636.59
2023-11-13T04:01:49.242Z,98630.75
2023-11-13T04:04:16.687Z,98643.22
2023-11-13T04:06:45.724Z,98648.41
2023-11-13T04:09:12.869Z,98652.94
2023-11-13T04:11:40.042Z,98653.00
2023-11-13T04:14:07.237Z,98659.88
2023-11-13T04:16:35.177Z,98667.97
2023-11-13T04:19:02.287Z,98667.97
2023-11-13T04:21:32.892Z,98660.91
2023-11-13T04:24:01.528Z,98671.75
2023-11-13T04:26:28.898Z,98670.34
2023-11-13T04:28:55.962Z,98676.25
2023-11-13T04:31:23.605Z,98675.09
2023-11-13T04:33:50.863Z,98665.28
2023-11-13T04:36:17.994Z,98662.34
2023-11-13T04:38:45.022Z,98661.97
2023-11-13T04:41:17.950Z,98655.06
2023-11-13T04:43:48.914Z,98657.63
2023-11-13T04:46:16.328Z,98662.56
2023-11-13T04:48:44.159Z,98664.16
2023-11-13T04:51:11.223Z,98665.72
2023-11-13T04:53:38.506Z,98668.91
2023-11-13T04:56:06.476Z,98669.69
2023-11-13T04:58:35.218Z,98674.59
2023-11-13T05:01:02.867Z,98682.28
2023-11-13T05:03:33.026Z,98690.94
2023-11-13T05:06:00.046Z,98684.84
2023-11-13T05:08:27.094Z,98685.22
2023-11-13T05:10:54.368Z,98690.03
2023-11-13T05:13:21.392Z,98703.22
2023-11-13T05:15:49.849Z,98698.34
2023-11-13T05:18:17.034Z,98699.72
2023-11-13T05:20:49.719Z,98694.59
2023-11-13T05:23:17.324Z,98696.97
2023-11-13T05:25:44.589Z,98708.00
2023-11-13T05:28:12.870Z,98700.91
2023-11-13T05:30:41.059Z,98708.22
2023-11-13T05:33:09.573Z,98709.03
2023-11-13T05:35:36.712Z,98715.72
2023-11-13T05:38:04.969Z,98732.44
2023-11-13T05:40:32.090Z,98732.88
2023-11-13T05:42:59.334Z,98744.31
2023-11-13T05:45:26.384Z,98736.81
2023-11-13T05:47:54.563Z,98737.81
2023-11-13T05:50:25.247Z,98745.50
2023-11-13T05:52:52.770Z,98735.06
2023-11-13T05:55:19.955Z,98742.56
2023-11-13T05:57:47.032Z,98746.69
2023-11-13T06:00:14.623Z,98755.94
2023-11-13T06:02:41.792Z,98761.50
2023-11-13T06:05:09.540Z,98771.53
2023-11-13T06:07:38.848Z,98782.53
2023-11-13T06:10:08.336Z,98789.06
2023-11-13T06:12:35.673Z,98798.16
2023-11-13T06:15:02.715Z,98802.47
2023-11-13T06:17:30.426Z,98794.41
2023-11-13T06:19:57.489Z,98791.84
2023-11-13T06:22:24.606Z,98789.91
2023-11-13T06:24:53.034Z,98791.88
2023-11-13T06:27:20.316Z,98790.38
2023-11-13T06:29:47.544Z,98794.91
2023-11-13T06:32:15.190Z,98797.91
2023-11-13T06:34:42.384Z,98800.88
2023-11-13T06:37:09.426Z,98804.47
2023-11-13T06:39:37.138Z,98804.69
2023-11-13T06:42:08.356Z,98802.94
2023-11-13T06:44:35.401Z,98799.66
2023-11-13T06:47:02.584Z,98802.41
2023-11-13T06:49:29.694Z,98800.69
2023-11-13T06:51:56.881Z,98795.78
2023-11-13T06:54:25.354Z,98800.13
2023-11-13T06:56:52.471Z,98797.81
2023-11-13T06:59:20.910Z,98806.13
2023-11-13T07:01:49.284Z,98803.56
2023-11-13T07:04:16.612Z,98806.38
2023-11-13T07:06:45.380Z,98799.88
2023-11-13T07:09:12.904Z,98798.31
2023-11-13T07:11:44.234Z,98796.53
2023-11-13T07:14:11.761Z,98798.31
2023-11-13T07:16:44.298Z,98786.28
2023-11-13T07:19:15.121Z,98791.22
2023-11-13T07:21:42.482Z,98781.94
2023-11-13T07:24:10.621Z,98792.59
2023-11-13T07:26:37.891Z,98790.63
2023-11-13T07:29:05.369Z,98786.75
2023-11-13T07:31:32.854Z,98781.81
2023-11-13T07:34:01.418Z,98788.13
2023-11-13T07:36:28.659Z,98789.94
2023-11-13T07:38:55.755Z,98790.16
2023-11-13T07:41:23.060Z,98788.19
2023-11-13T07:43:50.886Z,98785.81
2023-11-13T07:46:19.703Z,98774.41
2023-11-13T07:48:48.040Z,98776.75
2023-11-13T07:51:18.740Z,98780.09
2023-11-13T07:53:48.789Z,98774.75
2023-11-13T07:56:15.886Z,98774.16
2023-11-13T07:58:42.956Z,98778.28
2023-11-13T08:01:10.475Z,98773.56
2023-11-13T08:03:37.554Z,98777.88
2023-11-13T08:06:05.269Z,98758.50
2023-11-13T08:08:34.922Z,98758.47
2023-11-13T08:11:02.086Z,98759.63
2023-11-13T08:13:29.315Z,98762.38
2023-11-13T08:15:56.602Z,98763.31
2023-11-13T08:18:24.241Z,98770.63
2023-11-13T08:20:51.680Z,98764.25
2023-11-13T08:23:18.895Z,98757.84
2023-11-13T08:25:50.094Z,98758.41
2023-11-13T08:28:17.520Z,98747.50
2023-11-13T08:30:45.719Z,98746.97
2023-11-13T08:33:14.052Z,98745.41
2023-11-13T08:35:42.789Z,98742.03
2023-11-13T08:38:12.615Z,98746.63
2023-11-13T08:40:40.044Z,98739.66
2023-11-13T08:43:12.819Z,98738.44
2023-11-13T08:45:53.882Z,98735.88
2023-11-13T08:48:25.704Z,98733.66
2023-11-13T08:50:54.857Z,98733.44
2023-11-13T08:53:22.262Z,98731.53
2023-11-13T08:55:49.458Z,98724.53
2023-11-13T08:58:19.365Z,98733.53
2023-11-13T09:00:46.568Z,98726.03
2023-11-13T09:03:14.033Z,98728.63
2023-11-13T09:05:41.144Z,98726.69
2023-11-13T09:08:09.826Z,98727.41
2023-11-13T09:10:37.603Z,98725.53
2023-11-13T09:13:06.062Z,98720.19
2023-11-13T09:15:34.882Z,98722.97
2023-11-13T09:18:07.272Z,98723.53
2023-11-13T09:20:36.272Z,98716.88
2023-11-13T09:23:06.077Z,98718.19
2023-11-13T09:25:33.927Z,98715.81
2023-11-13T09:28:02.248Z,98703.91
2023-11-13T09:30:31.246Z,98703.94
2023-11-13T09:33:03.225Z,98702.00
2023-11-13T09:35:31.079Z,98703.19
2023-11-13T09:37:59.192Z,98706.50
2023-11-13T09:40:30.597Z,98696.34
2023-11-13T09:43:08.327Z,98700.56
2023-11-13T09:45:37.454Z,98699.16
2023-11-13T09:48:09.190Z,98684.13
2023-11-13T09:50:39.383Z,98687.19
2023-11-13T09:53:08.700Z,98682.16
2023-11-13T09:55:42.703Z,98686.38
2023-11-13T09:58:12.198Z,98689.31
2023-11-13T10:00:41.775Z,98686.09
2023-11-13T10:03:10.425Z,98687.19
2023-11-13T10:05:41.722Z,98671.97
2023-11-13T10:08:09.303Z,98667.59
2023-11-13T10:10:41.231Z,98668.28
2023-11-13T10:13:14.164Z,98662.56
2023-11-13T10:15:46.260Z,98665.19
2023-11-13T10:18:16.238Z,98666.03
2023-11-13T10:20:46.777Z,98668.56
2023-11-13T10:23:16.198Z,98677.94
2023-11-13T10:25:48.540Z,98676.81
2023-11-13T10:28:19.255Z,98673.28
2023-11-13T10:30:57.679Z,98672.25
2023-11-13T10:33:26.923Z,98664.97
2023-11-13T10:35:55.884Z,98662.31
2023-11-13T10:38:23.509Z,98661.84
2023-11-13T10:40:55.315Z,98663.44
2023-11-13T10:43:30.130Z,98647.41
2023-11-13T10:45:58.109Z,98656.25
2023-11-13T10:48:33.300Z,98647.50
2023-11-13T10:51:05.837Z,98646.59
2023-11-13T10:53:34.471Z,98646.25
2023-11-13T10:56:02.247Z,98644.81
2023-11-13T10:58:29.704Z,98641.16
2023-11-13T11:01:00.092Z,98635.94
2023-11-13T11:03:32.036Z,98638.75
2023-11-13T11:06:15.581Z,98635.81
2023-11-13T11:08:45.993Z,98639.16
2023-11-13T11:11:14.991Z,98639.94
2023-11-13T11:13:56.104Z,98639.50
2023-11-13T11:16:30.725Z,98634.97
2023-11-13T11:19:07.451Z,98641.03
2023-11-13T11:21:44.834Z,98644.44
2023-11-13T11:24:23.460Z,98636.16
2023-11-13T11:26:54.109Z,98634.81
2023-11-13T11:29:35.478Z,98648.88
2023-11-13T11:32:15.036Z,98642.38
2023-11-13T11:34:44.306Z,98631.44
2023-11-13T11:37:15.033Z,98628.59
2023-11-13T11:39:46.664Z,98633.00
2023-11-13T11:42:19.850Z,98641.81
2023-11-13T11:45:04.426Z,98638.69
2023-11-13T11:47:31.909Z,98637.88
2023-11-13T11:50:00.471Z,98634.25
2023-11-13T11:52:45.267Z,98629.03
2023-11-13T11:55:14.200Z,98617.06
2023-11-13T11:57:45.501Z,98619.69
2023-11-13T12:00:21.066Z,98626.72
2023-11-13T12:02:49.245Z,98623.84
2023-11-13T12:05:16.788Z,98627.22
2023-11-13T12:07:45.277Z,98621.47
2023-11-13T12:10:12.899Z,98610.78
2023-11-13T12:12:42.979Z,98615.19
2023-11-13T12:15:12.242Z,98613.13
2023-11-13T12:17:41.038Z,98612.59
2023-11-13T12:20:19.868Z,98602.19
2023-11-13T12:22:51.862Z,98602.47
2023-11-13T12:25:20.002Z,98604.81
2023-11-13T12:27:49.223Z,98595.38
2023-11-13T12:30:24.256Z,98599.03
2023-11-13T12:32:54.483Z,98590.91
2023-11-13T12:35:22.759Z,98585.22
2023-11-13T12:37:52.798Z,98591.75
2023-11-13T12:40:22.418Z,98587.06
2023-11-13T12:42:52.809Z,98587.06
2023-11-13T12:45:21.007Z,98590.97
2023-11-13T12:47:49.369Z,98591.50
2023-11-13T12:50:18.064Z,98594.94
2023-11-13T12:52:48.573Z,98595.47
2023-11-13T12:55:21.536Z,98600.94
2023-11-13T12:57:49.994Z,98599.66
2023-11-13T13:00:19.896Z,98596.56
2023-11-13T13:02:48.671Z,98590.28
2023-11-13T13:05:26.003Z,98591.31
2023-11-13T13:08:00.283Z,98605.66
2023-11-13T13:10:33.356Z,98612.41
2023-11-13T13:13:02.370Z,98610.06
2023-11-13T13:15:30.156Z,98610.81
2023-11-13T13:17:59.693Z,98612.59
2023-11-13T13:20:35.069Z,98615.41
2023-11-13T13:23:04.845Z,98610.94
2023-11-13T13:25:37.361Z,98613.25
2023-11-13T13:28:06.687Z,98612.16
2023-11-13T13:30:35.107Z,98616.56
2023-11-13T13:33:04.087Z,98607.66
2023-11-13T13:35:31.466Z,98611.00
2023-11-13T13:37:58.700Z,98611.22
2023-11-13T13:40:27.303Z,98613.25
2023-11-13T13:43:01.260Z,98617.13
2023-11-13T13:45:29.530Z,98621.94
2023-11-13T13:47:58.100Z,98623.94
2023-11-13T13:50:26.291Z,98631.41
2023-11-13T13:52:58.026Z,98617.84
2023-11-13T13:55:29.609Z,98626.28
2023-11-13T13:58:02.757Z,98631.94
2023-11-13T14:00:37.153Z,98641.72
2023-11-13T14:03:13.328Z,98636.69
2023-11-13T14:05:56.304Z,98633.75
2023-11-13T14:08:23.887Z,98632.34
2023-11-13T14:10:53.316Z,98631.25
2023-11-13T14:13:24.185Z,98633.69
2023-11-13T14:16:04.554Z,98633.38
2023-11-13T14:18:38.537Z,98637.97
2023-11-13T14:21:09.929Z,98636.81
2023-11-13T14:23:37.879Z,98635.13
2023-11-13T14:26:05.798Z,98635.00
2023-11-13T14:28:34.528Z,98642.88
2023-11-13T14:31:01.770Z,98641.38
2023-11-13T14:33:28.886Z,98637.38
2023-11-13T14:35:57.256Z,98634.94
2023-11-13T14:38:25.174Z,98651.94
2023-11-13T14:40:52.399Z,98642.50
2023-11-13T14:43:21.670Z,98648.88
2023-11-13T14:45:50.404Z,98637.34
2023-11-13T14:48:17.822Z,98637.28
2023-11-13T14:50:45.722Z,98619.94
2023-11-13T14:53:16.129Z,98620.06
2023-11-13T14:55:46.522Z,98633.00
2023-11-13T14:58:13.864Z,98622.69
2023-11-13T15:00:41.162Z,98626.50
2023-11-13T15:03:10.715Z,98622.00
2023-11-13T15:05:38.327Z,98627.34
2023-11-13T15:08:07.326Z,98625.00
2023-11-13T15:10:36.463Z,98628.31
2023-11-13T15:13:05.529Z,98638.59
2023-11-13T15:15:34.180Z,98646.31
2023-11-13T15:18:01.414Z,98636.94
2023-11-13T15:20:30.862Z,98643.06
2023-11-13T15:23:14.284Z,98643.00
2023-11-13T15:25:46.241Z,98640.97
2023-11-13T15:28:15.809Z,98637.13
2023-11-13T15:30:43.645Z,98645.91
2023-11-13T15:33:11.049Z,98644.41
2023-11-13T15:35:39.804Z,98643.25
2023-11-13T15:38:08.973Z,98641.94
2023-11-13T15:40:38.038Z,98638.44
2023-11-13T15:43:05.247Z,98633.38
2023-11-13T15:45:32.506Z,98631.09
2023-11-13T15:48:00.899Z,98630.38
2023-11-13T15:50:29.629Z,98633.78
2023-11-13T15:52:58.289Z,98640.19
2023-11-13T15:55:25.395Z,98637.72
2023-11-13T15:57:52.803Z,98639.84
2023-11-13T16:00:20.415Z,98641.53
2023-11-13T16:02:50.540Z,98644.94
2023-11-13T16:05:18.013Z,98660.03
2023-11-13T16:07:45.194Z,98655.16
2023-11-13T16:10:15.786Z,98650.81
2023-11-13T16:12:43.528Z,98651.09
2023-11-13T16:15:12.701Z,98645.78
2023-11-13T16:17:41.152Z,98648.56
2023-11-13T16:20:14.566Z,98656.31
2023-11-13T16:22:44.286Z,98660.50
2023-11-13T16:25:11.567Z,98656.38
2023-11-13T16:27:40.199Z,98668.84
2023-11-13T16:30:08.705Z,98676.94
2023-11-13T16:32:37.074Z,98689.38
2023-11-13T16:35:06.082Z,98697.69
2023-11-13T16:37:33.487Z,98696.56
2023-11-13T16:40:01.229Z,98689.88
2023-11-13T16:42:29.110Z,98696.81
2023-11-13T16:44:58.236Z,98698.00
2023-11-13T16:47:26.213Z,98711.59
2023-11-13T16:49:53.529Z,98712.63
2023-11-13T16:52:20.709Z,98713.00
2023-11-13T16:54:47.893Z,98715.97
2023-11-13T16:57:15.298Z,98706.91
2023-11-13T16:59:42.855Z,98704.13
2023-11-13T17:02:11.495Z,98709.25
2023-11-13T17:04:38.703Z,98705.91
2023-11-13T17:07:05.915Z,98708.69
2023-11-13T17:09:33.110Z,98698.41
2023-11-13T17:12:00.720Z,98705.28
2023-11-13T17:14:27.970Z,98709.03
2023-11-13T17:16:55.233Z,98718.66
2023-11-13T17:19:23.803Z,98724.75
2023-11-13T17:21:54.531Z,98728.88
2023-11-13T17:24:22.128Z,98718.97
2023-11-13T17:26:49.561Z,98722.31
2023-11-13T17:29:16.928Z,98720.09
2023-11-13T17:31:44.092Z,98722.47
2023-11-13T17:34:11.476Z,98721.81
2023-11-13T17:36:40.143Z,98731.63
2023-11-13T17:39:08.722Z,98728.38
2023-11-13T17:41:36.488Z,98731.88
2023-11-13T17:44:03.741Z,98732.06
2023-11-13T17:46:31.861Z,98730.47
2023-11-13T17:48:59.192Z,98729.88
2023-11-13T17:51:29.076Z,98717.66
2023-11-13T17:53:57.888Z,98733.56
2023-11-13T17:56:25.589Z,98711.09
2023-11-13T17:58:52.866Z,98710.13
2023-11-13T18:01:23.054Z,98707.34
2023-11-13T18:03:54.239Z,98726.41
2023-11-13T18:06:21.870Z,98713.81
2023-11-13T18:08:49.314Z,98716.16
2023-11-13T18:11:17.898Z,98708.56
2023-11-13T18:13:45.285Z,98707.53
2023-11-13T18:16:12.541Z,98718.50
2023-11-13T18:18:39.699Z,98712.19
2023-11-13T18:21:07.250Z,98708.78
2023-11-13T18:23:34.769Z,98705.25
2023-11-13T18:26:02.191Z,98712.31
2023-11-13T18:28:31.017Z,98718.22
2023-11-13T18:30:59.640Z,98728.03
2023-11-13T18:33:30.614Z,98729.25
2023-11-13T18:35:58.872Z,98723.91
2023-11-13T18:38:27.269Z,98727.44
2023-11-13T18:40:54.504Z,98735.53
2023-11-13T18:43:22.874Z,98732.63
2023-11-13T18:45:53.508Z,98734.38
2023-11-13T18:48:21.060Z,98731.41
2023-11-13T18:50:48.844Z,98727.25
2023-11-13T18:53:16.900Z,98720.94
2023-11-13T18:55:46.729Z,98723.44
2023-11-13T18:58:14.162Z,98728.66
2023-11-13T19:00:41.860Z,98733.34
2023-11-13T19:03:10.923Z,98741.72
2023-11-13T19:05:40.917Z,98740.50
2023-11-13T19:08:08.566Z,98744.75
2023-11-13T19:10:35.858Z,98750.22
2023-11-13T19:13:04.634Z,98753.13
2023-11-13T19:15:31.839Z,98757.81
2023-11-13T19:17:59.553Z,98759.16
2023-11-13T19:20:28.318Z,98747.69
2023-11-13T19:22:58.828Z,98738.22
2023-11-13T19:25:26.517Z,98752.31
2023-11-13T19:27:53.866Z,98747.53
2023-11-13T19:30:21.541Z,98749.06
2023-11-13T19:32:55.756Z,98747.03
2023-11-13T19:35:30.196Z,98746.56
2023-11-13T19:38:00.415Z,98743.59
2023-11-13T19:40:27.576Z,98739.81
2023-11-13T19:42:55.082Z,98739.72
2023-11-13T19:45:25.276Z,98732.94
2023-11-13T19:47:55.055Z,98734.09
2023-11-13T19:50:26.342Z,98744.66
2023-11-13T19:52:55.152Z,98757.41
2023-11-13T19:55:25.418Z,98751.06
2023-11-13T19:57:52.972Z,98759.69
2023-11-13T20:00:21.483Z,98764.16
2023-11-13T20:02:51.812Z,98765.94
2023-11-13T20:05:19.250Z,98765.16
2023-11-13T20:07:46.740Z,98764.34
2023-11-13T20:10:15.516Z,98761.38
2023-11-13T20:12:43.796Z,98766.81
2023-11-13T20:15:12.112Z,98760.81
2023-11-13T20:17:39.598Z,98753.50
2023-11-13T20:20:10.647Z,98758.34
2023-11-13T20:22:38.186Z,98745.50
2023-11-13T20:25:06.745Z,98745.06
2023-11-13T20:27:36.388Z,98747.94
2023-11-13T20:30:06.112Z,98735.28
2023-11-13T20:32:33.581Z,98744.69
2023-11-13T20:35:01.415Z,98749.94
2023-11-13T20:37:29.004Z,98747.75
2023-11-13T20:39:56.213Z,98747.09
2023-11-13T20:42:23.336Z,98749.66
2023-11-13T20:44:52.385Z,98755.13
2023-11-13T20:47:20.032Z,98755.91
2023-11-13T20:49:47.985Z,98758.19
2023-11-13T20:52:16.628Z,98751.03
2023-11-13T20:54:45.360Z,98760.78
2023-11-13T20:57:13.335Z,98760.97
2023-11-13T20:59:41.071Z,98755.06
2023-11-13T21:02:12.414Z,98755.56
2023-11-13T21:04:41.893Z,98763.56
2023-11-13T21:07:09.174Z,98758.53
2023-11-13T21:09:36.275Z,98743.75
2023-11-13T21:12:05.263Z,98755.69
2023-11-13T21:14:32.696Z,98752.19
2023-11-13T21:16:59.938Z,98747.59
2023-11-13T21:19:30.027Z,98748.41
2023-11-13T21:21:57.150Z,98742.66
2023-11-13T21:24:24.285Z,98738.25
2023-11-13T21:26:51.623Z,98737.00
2023-11-13T21:29:19.917Z,98743.56
2023-11-13T21:31:47.214Z,98758.22
2023-11-13T21:34:14.587Z,98764.44
2023-11-13T21:36:48.129Z,98759.19
2023-11-13T21:39:15.421Z,98766.50
2023-11-13T21:41:47.568Z,98758.41
2023-11-13T21:44:17.872Z,98759.97
2023-11-13T21:46:48.271Z,98766.03
2023-11-13T21:49:18.263Z,98758.56
2023-11-13T21:51:51.523Z,98767.16
2023-11-13T21:54:22.223Z,98767.16
2023-11-13T21:56:51.805Z,98775.63
2023-11-13T21:59:23.903Z,98772.09
2023-11-13T22:01:55.862Z,98781.63
2023-11-13T22:04:23.737Z,98771.00
2023-11-13T22:06:55.603Z,98783.91
2023-11-13T22:09:22.822Z,98789.00
2023-11-13T22:11:50.127Z,98783.44
2023-11-13T22:14:18.381Z,98781.06
2023-11-13T22:16:50.688Z,98777.09
2023-11-13T22:19:20.931Z,98770.25
2023-11-13T22:21:49.403Z,98779.19
2023-11-13T22:24:18.924Z,98771.25
2023-11-13T22:26:47.163Z,98773.66
2023-11-13T22:29:33.668Z,98766.19
2023-11-13T22:32:03.779Z,98760.34
2023-11-13T22:34:31.336Z,98754.28
2023-11-13T22:36:59.374Z,98756.22
2023-11-13T22:39:31.465Z,98754.13
2023-11-13T22:41:59.771Z,98756.34
2023-11-13T22:44:26.877Z,98753.63
2023-11-13T22:46:54.080Z,98756.66
2023-11-13T22:49:21.266Z,98755.09
2023-11-13T22:51:48.807Z,98749.84
2023-11-13T22:54:15.936Z,98756.50
2023-11-13T22:56:45.851Z,98762.41
2023-11-13T22:59:14.262Z,98757.91
2023-11-13T23:01:41.893Z,98751.25
2023-11-13T23:04:09.203Z,98755.09
2023-11-13T23:06:36.356Z,98755.41
2023-11-13T23:09:03.688Z,98750.34
2023-11-13T23:11:33.207Z,98745.41
2023-11-13T23:14:02.333Z,98753.84
2023-11-13T23:16:29.674Z,98746.53
2023-11-13T23:18:59.223Z,98751.78
2023-11-13T23:21:30.265Z,98747.81
2023-11-13T23:23:57.639Z,98742.91
2023-11-13T23:26:26.593Z,98741.94
2023-11-13T23:28:53.717Z,98740.69
2023-11-13T23:31:22.943Z,98741.81
2023-11-13T23:33:49.999Z,98733.53
2023-11-13T23:36:17.153Z,98737.81
2023-11-13T23:38:44.246Z,98735.78
2023-11-13T23:41:11.433Z,98733.53
2023-11-13T23:43:38.587Z,98735.28
2023-11-13T23:46:06.244Z,98738.00
2023-11-13T23:48:34.723Z,98738.94
2023-11-13T23:51:02.432Z,98741.22
2023-11-13T23:53:29.590Z,98748.03
2023-11-13T23:55:57.582Z,98748.69
2023-11-13T23:58:25.615Z,98755.66
